Time;durP1;ratioP1;P1;durP2;ratioP2;P2;SDS_P1;SDS_P2;PMS_P1;PMS_P2;Temp;Humidity;BMP_temperature;BMP_pressure;BME280_temperature;BME280_humidity;BME280_pressure;Samples;Min_cycle;Max_cycle;Signal;HPM_P1;HPM_P2
2023/01/16 00:00:30;;;;;;;13.70;1.88;;;;;;;8.20;74.79;97915.47;5051421;28;20044;-69
2023/01/16 00:02:55;;;;;;;12.00;1.63;;;;;;;8.13;73.67;97898.78;5056403;28;20025;-69
2023/01/16 00:05:20;;;;;;;14.10;1.60;;;;;;;8.30;73.50;97923.59;5060178;28;20131;-69
2023/01/16 00:07:46;;;;;;;7.25;1.52;;;;;;;8.32;72.55;97939.41;5035738;28;20044;-69
2023/01/16 00:10:11;;;;;;;10.43;1.77;;;;;;;8.35;73.16;97944.28;5036510;28;20025;-69
2023/01/16 00:12:37;;;;;;;11.95;1.73;;;;;;;8.43;72.93;97944.63;5055129;28;20345;-69
2023/01/16 00:15:03;;;;;;;10.40;1.92;;;;;;;8.37;73.79;97956.31;5051445;28;20110;-69
2023/01/16 00:17:28;;;;;;;11.60;1.80;;;;;;;8.54;74.28;97960.78;5051535;28;20033;-69
2023/01/16 00:19:54;;;;;;;15.77;2.05;;;;;;;8.49;74.64;97966.13;5052470;28;20049;-69
2023/01/16 00:22:20;;;;;;;12.25;1.70;;;;;;;8.42;74.00;97972.50;5052992;28;20036;-69
2023/01/16 00:24:45;;;;;;;16.73;2.45;;;;;;;8.44;74.04;97977.59;5051213;28;20109;-70
2023/01/16 00:27:11;;;;;;;15.80;2.45;;;;;;;8.61;73.08;97980.13;5051570;28;20029;-70
2023/01/16 00:29:36;;;;;;;13.07;2.10;;;;;;;8.55;73.45;97975.81;5053094;28;20029;-69
2023/01/16 00:32:02;;;;;;;13.88;2.13;;;;;;;8.41;73.79;97995.00;5052746;28;20032;-69
2023/01/16 00:34:27;;;;;;;15.82;2.53;;;;;;;8.48;73.21;97994.78;5052652;28;20158;-69
2023/01/16 00:36:53;;;;;;;14.82;2.05;;;;;;;8.45;74.13;97992.63;5054056;28;20120;-70
2023/01/16 00:39:18;;;;;;;11.68;1.80;;;;;;;8.56;73.51;98005.03;5055595;28;20040;-70
2023/01/16 00:41:44;;;;;;;12.85;2.03;;;;;;;8.46;75.04;98011.09;5053665;28;20028;-70
2023/01/16 00:44:09;;;;;;;12.02;1.10;;;;;;;8.25;76.31;98017.31;5050256;28;20181;-69
2023/01/16 00:46:35;;;;;;;13.68;1.88;;;;;;;8.37;76.19;98020.63;5051645;28;20036;-69
2023/01/16 00:49:00;;;;;;;12.80;1.67;;;;;;;8.39;76.02;98031.94;5036637;28;20077;-69
2023/01/16 00:51:26;;;;;;;10.55;1.55;;;;;;;8.42;76.18;98038.69;5054781;28;20082;-69
2023/01/16 00:53:51;;;;;;;13.27;2.22;;;;;;;8.33;76.34;98032.13;5063085;28;20092;-69
2023/01/16 00:56:16;;;;;;;16.65;2.10;;;;;;;8.23;76.77;98051.56;5063548;28;20028;-69
2023/01/16 00:58:42;;;;;;;19.70;1.80;;;;;;;8.23;77.39;98060.41;5052418;28;20036;-69
2023/01/16 01:01:07;;;;;;;8.57;1.90;;;;;;;8.31;77.52;98066.38;5036523;28;20033;-69
2023/01/16 01:03:32;;;;;;;11.27;1.60;;;;;;;8.11;77.43;98077.66;5052003;28;20033;-69
2023/01/16 01:05:58;;;;;;;13.40;2.17;;;;;;;8.28;76.45;98086.47;5050749;28;20036;-69
2023/01/16 01:08:23;;;;;;;13.13;2.13;;;;;;;8.14;77.35;98088.69;5052514;28;20029;-69
2023/01/16 01:10:49;;;;;;;19.92;2.33;;;;;;;8.16;77.13;98097.28;5052758;28;20534;-69
2023/01/16 01:13:14;;;;;;;17.92;2.10;;;;;;;8.16;78.00;98105.34;5050347;28;20029;-69
2023/01/16 01:15:40;;;;;;;13.57;1.95;;;;;;;8.03;77.46;98092.31;5051706;28;20140;-69
2023/01/16 01:18:06;;;;;;;9.27;1.63;;;;;;;8.02;77.23;98114.81;5059214;28;20139;-69
2023/01/16 01:20:32;;;;;;;12.15;1.63;;;;;;;8.17;76.23;98117.66;5052710;28;20029;-69
2023/01/16 01:22:58;;;;;;;15.35;3.75;;;;;;;8.30;76.59;98118.34;5052260;28;20029;-69
2023/01/16 01:25:24;;;;;;;12.45;1.63;;;;;;;8.16;77.12;98109.88;5052391;28;20039;-69
2023/01/16 01:27:49;;;;;;;10.45;1.70;;;;;;;8.14;77.18;98120.84;5050711;28;20143;-69
2023/01/16 01:30:15;;;;;;;12.25;1.65;;;;;;;7.63;77.15;98053.25;5052749;28;20035;-70
2023/01/16 01:32:40;;;;;;;13.40;2.10;;;;;;;8.07;76.50;98125.56;5055035;28;20440;-69
2023/01/16 01:35:07;;;;;;;13.43;1.73;;;;;;;8.13;76.78;98137.97;5056166;28;20067;-69
2023/01/16 01:37:33;;;;;;;13.32;1.70;;;;;;;8.08;76.62;98150.47;5056359;28;20036;-69
2023/01/16 01:39:59;;;;;;;18.48;2.60;;;;;;;8.13;75.55;98151.38;5054624;28;20025;-69
2023/01/16 01:42:43;;;;;;;12.70;2.78;;;;;;;8.16;75.04;98155.41;5038012;28;20040;-69
2023/01/16 01:45:20;;;;;;;15.27;1.75;;;;;;;8.10;75.13;98149.19;5055789;28;20024;-69
2023/01/16 01:48:06;;;;;;;15.70;2.15;;;;;;;8.19;74.62;98162.97;5058021;28;20521;-69
2023/01/16 01:50:46;;;;;;;12.65;1.70;;;;;;;8.09;73.49;98133.38;5050329;28;20056;-69
2023/01/16 01:53:16;;;;;;;10.35;1.98;;;;;;;8.10;73.33;98159.09;5056408;28;20055;-69
2023/01/16 01:55:46;;;;;;;12.40;2.60;;;;;;;8.04;73.26;98160.88;5055995;28;20111;-69
2023/01/16 01:58:20;;;;;;;9.32;1.55;;;;;;;8.13;73.73;98180.03;5057476;28;20021;-70
2023/01/16 02:00:48;;;;;;;9.82;1.48;;;;;;;8.12;74.64;98186.44;5057050;28;20028;-69
2023/01/16 02:03:18;;;;;;;17.20;2.63;;;;;;;8.27;74.33;98194.66;5055556;28;20036;-69
2023/01/16 02:05:49;;;;;;;11.40;1.90;;;;;;;8.12;75.10;98199.84;5055897;28;20024;-69
2023/01/16 02:08:16;;;;;;;13.18;2.22;;;;;;;8.05;74.86;98204.56;5071783;28;19997;-69
2023/01/16 02:10:49;;;;;;;17.92;2.20;;;;;;;8.22;74.12;98199.97;5071721;28;20047;-69
2023/01/16 02:13:14;;;;;;;12.23;2.00;;;;;;;8.25;73.85;98204.84;5058198;28;20025;-69
2023/01/16 02:19:14;;;;;;;12.82;2.10;;;;;;;8.28;74.44;98220.41;5040784;28;20049;-69
2023/01/16 02:21:18;;;;;;;16.67;2.35;;;;;;;8.37;74.22;98226.13;5053833;28;20035;-69
2023/01/16 02:24:18;;;;;;;19.33;2.65;;;;;;;8.30;74.80;98229.00;5054966;28;20029;-69
2023/01/16 02:27:10;;;;;;;15.73;2.20;;;;;;;8.17;75.60;98240.06;5054541;28;20029;-69
2023/01/16 02:29:38;;;;;;;19.33;2.78;;;;;;;8.18;75.41;98244.38;5054825;28;20036;-69
2023/01/16 02:32:28;;;;;;;17.23;2.22;;;;;;;8.12;75.87;98256.09;5054997;28;20021;-69
2023/01/16 02:35:13;;;;;;;11.93;2.35;;;;;;;8.22;75.13;98262.38;5056203;28;20501;-69
2023/01/16 02:37:51;;;;;;;14.55;2.58;;;;;;;8.22;75.30;98266.94;5054340;28;20055;-69
2023/01/16 02:40:40;;;;;;;13.90;1.42;;;;;;;8.02;75.21;98258.59;5054949;28;20037;-69
2023/01/16 02:43:14;;;;;;;17.52;2.17;;;;;;;8.30;74.32;98277.22;5053845;28;20036;-69
2023/01/16 02:45:39;;;;;;;16.55;2.38;;;;;;;8.29;74.13;98274.81;5054935;28;20028;-69
2023/01/16 02:48:19;;;;;;;16.52;2.65;;;;;;;8.30;73.62;98285.25;5054531;28;20040;-69
2023/01/16 02:50:52;;;;;;;13.80;1.77;;;;;;;8.16;73.48;98274.09;5054603;28;20028;-69
2023/01/16 02:53:38;;;;;;;14.38;2.22;;;;;;;8.30;72.78;98303.22;5053240;28;20107;-69
2023/01/16 02:56:08;;;;;;;13.38;1.92;;;;;;;8.28;72.76;98313.34;5053640;28;20025;-69
2023/01/16 02:58:39;;;;;;;12.40;1.88;;;;;;;8.24;72.41;98313.03;5055088;28;20108;-69
2023/01/16 03:01:06;;;;;;;11.77;1.55;;;;;;;8.23;71.87;98316.78;5054865;28;20383;-69
2023/01/16 03:03:41;;;;;;;17.23;2.20;;;;;;;8.03;71.36;98262.91;5053965;28;20036;-69
2023/01/16 03:06:17;;;;;;;17.55;2.80;;;;;;;8.30;71.62;98321.97;5055246;28;20029;-68
2023/01/16 03:09:19;;;;;;;16.05;2.45;;;;;;;8.42;70.96;98336.94;5054306;28;20066;-68
2023/01/16 03:12:12;;;;;;;14.82;2.22;;;;;;;8.29;72.00;98339.91;5054313;28;20025;-69
2023/01/16 03:14:53;;;;;;;18.02;2.85;;;;;;;8.43;71.73;98333.19;5053055;28;20044;-69
2023/01/16 03:17:49;;;;;;;22.13;3.28;;;;;;;8.34;73.23;98337.28;5053722;28;20544;-69
2023/01/16 03:20:48;;;;;;;15.73;2.25;;;;;;;8.32;73.22;98334.06;5053903;28;20029;-69
2023/01/16 03:23:37;;;;;;;24.98;3.25;;;;;;;8.27;74.08;98342.00;5071061;28;20021;-69
2023/01/16 03:26:13;;;;;;;11.15;2.25;;;;;;;8.20;74.69;98336.81;5068641;28;20036;-69
2023/01/16 03:28:59;;;;;;;16.48;3.17;;;;;;;8.22;73.35;98333.91;5055120;28;20017;-69
2023/01/16 03:31:51;;;;;;;18.77;2.10;;;;;;;8.21;72.76;98343.81;5054347;28;20041;-69
2023/01/16 03:34:30;;;;;;;13.25;1.88;;;;;;;8.22;73.43;98355.34;5052612;28;20021;-69
2023/01/16 03:37:05;;;;;;;23.50;3.15;;;;;;;8.10;74.45;98373.34;5052268;28;20472;-69
2023/01/16 03:39:43;;;;;;;16.75;2.28;;;;;;;8.16;74.06;98367.03;5052537;28;20230;-69
2023/01/16 03:42:17;;;;;;;25.25;3.10;;;;;;;7.93;74.39;98346.56;5054873;28;20108;-69
2023/01/16 03:44:49;;;;;;;16.25;2.50;;;;;;;8.23;73.65;98373.84;5055943;28;20029;-69
2023/01/16 03:47:20;;;;;;;16.25;2.83;;;;;;;8.22;73.53;98371.41;5052874;28;20070;-69
2023/01/16 03:49:51;;;;;;;21.98;2.58;;;;;;;8.13;73.41;98356.78;5053331;28;20033;-69
2023/01/16 03:52:21;;;;;;;19.60;3.67;;;;;;;8.10;74.10;98387.56;5052804;28;20025;-69
2023/01/16 03:54:58;;;;;;;12.20;2.88;;;;;;;8.06;74.42;98377.56;5052589;28;20562;-69
2023/01/16 03:57:37;;;;;;;19.65;2.78;;;;;;;7.91;74.44;98365.56;5053122;28;20482;-69
2023/01/16 04:00:04;;;;;;;19.95;2.88;;;;;;;8.08;74.32;98378.97;5051633;28;20032;-69
2023/01/16 04:02:41;;;;;;;23.77;3.40;;;;;;;8.07;73.79;98395.25;5052878;28;20086;-69
2023/01/16 04:05:34;;;;;;;18.35;2.53;;;;;;;7.96;73.03;98362.94;5052538;28;20031;-69
2023/01/16 04:08:07;;;;;;;19.38;2.78;;;;;;;8.14;72.84;98395.91;5052196;28;20044;-69
2023/01/16 04:10:36;;;;;;;21.05;3.65;;;;;;;8.08;73.07;98391.53;5053351;28;20064;-69
2023/01/16 04:13:07;;;;;;;20.20;2.80;;;;;;;8.14;73.32;98396.72;5053175;28;20063;-69
2023/01/16 04:15:35;;;;;;;16.92;2.97;;;;;;;7.95;73.22;98382.75;5052634;28;20504;-69
2023/01/16 04:18:01;;;;;;;29.92;3.97;;;;;;;8.12;74.04;98403.41;5052878;28;20116;-69
2023/01/16 04:20:29;;;;;;;27.33;3.70;;;;;;;8.08;73.63;98404.91;5052321;28;20099;-69
2023/01/16 04:22:54;;;;;;;27.50;3.92;;;;;;;8.17;73.47;98408.81;5051319;28;20037;-69
2023/01/16 04:25:21;;;;;;;24.33;3.42;;;;;;;8.08;73.23;98412.94;5050925;28;20024;-69
2023/01/16 04:27:46;;;;;;;15.90;2.58;;;;;;;8.18;71.94;98408.59;5052401;28;20482;-69
2023/01/16 04:30:12;;;;;;;17.77;2.90;;;;;;;8.24;71.29;98417.50;5050769;28;20124;-69
2023/01/16 04:32:38;;;;;;;26.23;3.25;;;;;;;8.11;71.78;98412.47;5051113;28;20054;-69
2023/01/16 04:35:04;;;;;;;13.30;2.25;;;;;;;7.94;71.91;98397.19;5053008;28;20036;-69
2023/01/16 04:37:30;;;;;;;27.13;3.00;;;;;;;8.11;71.00;98425.84;5064240;28;20084;-69
2023/01/16 04:39:55;;;;;;;15.68;2.92;;;;;;;8.13;71.20;98431.78;5072572;28;20036;-69
2023/01/16 04:42:21;;;;;;;22.67;3.35;;;;;;;8.15;71.92;98435.06;5057136;28;20041;-69
2023/01/16 04:44:46;;;;;;;22.08;3.63;;;;;;;8.18;71.64;98431.91;5055308;28;20464;-69
2023/01/16 04:47:12;;;;;;;23.48;3.67;;;;;;;8.15;72.82;98424.34;5055873;28;20029;-69
2023/01/16 04:49:37;;;;;;;27.17;3.47;;;;;;;8.17;74.23;98441.78;5052563;28;20029;-69
2023/01/16 04:52:03;;;;;;;26.23;3.92;;;;;;;8.15;75.04;98443.09;5052633;28;20040;-68
2023/01/16 04:54:29;;;;;;;19.20;2.60;;;;;;;8.12;75.50;98446.25;5052446;28;20033;-68
2023/01/16 04:56:54;;;;;;;21.25;2.83;;;;;;;8.01;75.58;98442.56;5051300;28;20037;-69
2023/01/16 04:59:19;;;;;;;16.10;2.33;;;;;;;7.97;75.81;98458.28;5052503;28;20056;-68
2023/01/16 05:01:45;;;;;;;13.32;2.15;;;;;;;7.84;76.17;98455.91;5052321;28;20502;-68
2023/01/16 05:04:13;;;;;;;14.07;2.00;;;;;;;7.83;75.90;98448.94;5052743;28;20086;-67
2023/01/16 05:06:39;;;;;;;21.45;2.60;;;;;;;7.84;75.93;98461.25;5054309;28;20032;-67
2023/01/16 05:09:05;;;;;;;20.48;3.00;;;;;;;7.91;75.43;98459.28;5055263;28;20021;-67
2023/01/16 05:11:31;;;;;;;23.92;2.78;;;;;;;7.87;76.14;98462.66;5055872;28;20029;-67
2023/01/16 05:13:57;;;;;;;22.38;3.08;;;;;;;7.70;76.63;98443.88;5055861;28;20032;-66
2023/01/16 05:16:22;;;;;;;28.50;3.50;;;;;;;7.76;77.12;98450.94;5053966;28;20079;-67
2023/01/16 05:18:47;;;;;;;29.65;3.88;;;;;;;7.89;77.28;98468.59;5055493;28;20484;-66
2023/01/16 05:21:13;;;;;;;19.98;3.40;;;;;;;7.77;78.39;98461.41;5056475;28;20045;-67
2023/01/16 05:23:38;;;;;;;32.22;3.30;;;;;;;7.90;78.51;98467.53;5038974;28;20037;-67
2023/01/16 05:26:05;;;;;;;22.70;3.40;;;;;;;7.89;78.18;98471.28;5055259;28;20464;-67
2023/01/16 05:28:31;;;;;;;28.95;3.72;;;;;;;7.80;79.06;98478.84;5056122;28;20033;-67
2023/01/16 05:30:57;;;;;;;25.48;3.58;;;;;;;7.81;79.05;98469.75;5057838;28;20025;-67
2023/01/16 05:33:23;;;;;;;19.63;3.00;;;;;;;7.85;78.96;98473.63;5056133;28;20037;-67
2023/01/16 05:35:48;;;;;;;24.33;3.10;;;;;;;7.80;79.49;98473.50;5055943;28;20044;-67
2023/01/16 05:38:15;;;;;;;28.90;2.85;;;;;;;7.75;80.05;98484.94;5054762;28;20498;-67
2023/01/16 05:40:41;;;;;;;26.92;3.35;;;;;;;7.84;79.50;98477.31;5054513;28;20503;-67
2023/01/16 05:43:06;;;;;;;19.77;2.80;;;;;;;7.84;79.55;98484.53;5037458;28;20116;-67
2023/01/16 05:45:32;;;;;;;24.00;3.80;;;;;;;7.85;79.85;98495.03;5037364;28;20494;-67
2023/01/16 05:47:57;;;;;;;21.25;3.22;;;;;;;7.88;80.08;98497.25;5022005;28;20090;-67
2023/01/16 05:50:23;;;;;;;24.42;3.08;;;;;;;7.61;79.97;98461.34;5054839;28;20120;-67
2023/01/16 05:52:49;;;;;;;19.92;3.22;;;;;;;7.86;79.31;98503.88;5054673;28;20395;-67
2023/01/16 05:55:15;;;;;;;25.00;3.40;;;;;;;7.83;79.66;98507.84;5072776;28;20013;-67
2023/01/16 05:57:40;;;;;;;22.73;2.78;;;;;;;7.74;79.08;98499.34;5075490;28;20031;-66
2023/01/16 06:00:06;;;;;;;18.55;2.80;;;;;;;7.71;80.02;98504.38;5055605;28;20051;-67
2023/01/16 06:02:32;;;;;;;25.73;3.42;;;;;;;7.77;79.83;98506.09;5058488;28;20034;-67
2023/01/16 06:04:57;;;;;;;25.42;3.38;;;;;;;7.73;79.96;98515.66;5056581;28;20029;-67
2023/01/16 06:07:23;;;;;;;29.63;3.08;;;;;;;7.70;80.30;98522.28;5053436;28;20049;-67
2023/01/16 06:09:48;;;;;;;29.13;3.05;;;;;;;7.65;81.07;98530.22;5051878;28;20115;-67
2023/01/16 06:12:15;;;;;;;24.98;3.35;;;;;;;7.63;80.84;98529.66;5051961;28;20428;-67
2023/01/16 06:14:41;;;;;;;26.05;3.42;;;;;;;7.60;81.79;98530.13;5053039;28;20392;-67
2023/01/16 06:17:06;;;;;;;29.88;3.65;;;;;;;7.62;81.84;98535.25;5050556;28;20339;-67
2023/01/16 06:19:32;;;;;;;23.95;3.55;;;;;;;7.60;82.31;98534.66;5035352;28;20384;-67
2023/01/16 06:21:57;;;;;;;20.45;2.85;;;;;;;7.59;82.81;98543.75;5053921;28;20033;-67
2023/01/16 06:24:24;;;;;;;32.28;3.38;;;;;;;7.49;83.39;98545.16;5053779;28;20021;-67
2023/01/16 06:26:49;;;;;;;27.88;3.78;;;;;;;7.52;82.69;98538.53;5053849;28;20048;-67
2023/01/16 06:29:15;;;;;;;28.20;3.55;;;;;;;7.38;82.91;98511.16;5053866;28;20024;-67
2023/01/16 06:31:40;;;;;;;18.23;2.88;;;;;;;7.41;82.97;98529.44;5054048;28;20475;-67
2023/01/16 06:34:05;;;;;;;21.73;3.17;;;;;;;7.37;83.50;98530.97;5054565;28;20037;-67
2023/01/16 06:36:31;;;;;;;30.23;3.55;;;;;;;7.29;85.26;98534.81;5054134;28;20033;-67
2023/01/16 06:38:56;;;;;;;28.58;3.17;;;;;;;7.38;84.00;98543.28;5054470;28;20025;-67
2023/01/16 06:41:22;;;;;;;25.02;3.42;;;;;;;7.37;84.47;98547.00;5036179;28;20029;-68
2023/01/16 06:43:48;;;;;;;24.08;3.15;;;;;;;7.32;84.15;98549.59;5054085;28;20206;-67
2023/01/16 06:46:14;;;;;;;22.90;2.83;;;;;;;7.28;83.92;98538.53;5053281;28;20033;-67
2023/01/16 06:48:41;;;;;;;21.98;2.85;;;;;;;7.15;83.58;98529.91;5053648;28;20021;-67
2023/01/16 06:51:07;;;;;;;24.48;3.20;;;;;;;7.28;83.85;98551.06;5036170;28;20454;-67
2023/01/16 06:53:32;;;;;;;24.05;3.05;;;;;;;7.12;84.31;98549.94;5053438;28;20064;-68
2023/01/16 06:55:58;;;;;;;26.70;2.67;;;;;;;7.15;84.62;98560.16;5054094;28;20025;-68
2023/01/16 06:58:23;;;;;;;24.60;2.47;;;;;;;7.07;85.09;98555.97;5037093;28;20063;-68
2023/01/16 07:00:50;;;;;;;25.77;2.42;;;;;;;7.07;84.62;98566.66;5053131;28;20415;-68
2023/01/16 07:03:17;;;;;;;25.38;3.05;;;;;;;7.06;85.45;98569.56;5054668;28;20032;-67
2023/01/16 07:05:45;;;;;;;20.20;2.50;;;;;;;7.06;84.96;98567.72;5052798;28;20112;-67
2023/01/16 07:08:10;;;;;;;21.70;2.35;;;;;;;7.04;85.32;98575.13;5053050;28;20111;-67
2023/01/16 07:10:36;;;;;;;21.10;2.78;;;;;;;7.05;85.06;98571.44;5053072;28;20032;-67
2023/01/16 07:13:01;;;;;;;22.05;2.80;;;;;;;7.02;84.94;98573.75;5069262;28;20029;-67
2023/01/16 07:24:00;;;;;;;16.58;2.05;;;;;;;7.01;85.02;98580.13;5053423;28;20537;-67
2023/01/16 07:26:27;;;;;;;16.50;2.03;;;;;;;7.05;84.93;98590.16;5050902;28;20108;-67
2023/01/16 07:28:54;;;;;;;20.40;2.45;;;;;;;7.09;84.96;98600.41;5052490;28;20033;-67
2023/01/16 07:31:22;;;;;;;22.90;2.30;;;;;;;6.97;85.49;98601.16;5052477;28;20040;-67
2023/01/16 07:33:47;;;;;;;17.95;2.35;;;;;;;6.96;85.44;98606.75;5052644;28;20040;-67
2023/01/16 07:36:13;;;;;;;20.15;2.05;;;;;;;6.82;85.61;98582.91;5034653;28;20029;-67
2023/01/16 07:38:38;;;;;;;19.08;3.08;;;;;;;7.03;85.53;98597.59;5051061;28;20454;-67
2023/01/16 07:41:04;;;;;;;19.67;2.25;;;;;;;7.00;85.63;98606.06;5052072;28;20114;-67
2023/01/16 07:43:29;;;;;;;17.95;2.67;;;;;;;6.90;86.47;98607.69;5051299;28;20040;-67
2023/01/16 07:45:55;;;;;;;15.50;2.38;;;;;;;6.91;86.63;98612.78;5052322;28;20116;-68
2023/01/16 07:48:24;;;;;;;15.50;1.90;;;;;;;6.90;86.81;98607.69;5051549;28;20045;-68
2023/01/16 07:50:58;;;;;;;20.25;2.10;;;;;;;6.84;87.28;98617.41;5051635;28;20021;-68
2023/01/16 07:53:25;;;;;;;12.85;1.80;;;;;;;6.91;86.70;98626.16;5052476;28;20025;-67
2023/01/16 07:55:53;;;;;;;12.43;1.90;;;;;;;6.81;87.06;98618.69;5034466;28;20036;-67
2023/01/16 07:58:20;;;;;;;16.77;2.00;;;;;;;6.84;86.37;98622.75;5052353;28;20035;-67
2023/01/16 08:00:47;;;;;;;14.68;1.70;;;;;;;6.84;86.87;98638.81;5052526;28;20488;-67
2023/01/16 08:03:14;;;;;;;17.67;1.75;;;;;;;6.81;86.99;98637.38;5052525;28;20162;-67
2023/01/16 08:05:43;;;;;;;20.48;2.38;;;;;;;6.83;86.88;98632.66;5052633;28;20029;-67
2023/01/16 08:08:09;;;;;;;16.73;2.00;;;;;;;6.83;87.13;98648.69;5052134;28;20021;-67
2023/01/16 08:10:35;;;;;;;16.88;1.80;;;;;;;6.85;87.25;98639.63;5050753;28;20043;-67
2023/01/16 08:13:00;;;;;;;16.55;2.08;;;;;;;6.91;87.00;98655.56;5034407;28;20033;-67
2023/01/16 08:15:26;;;;;;;19.50;1.98;;;;;;;6.87;87.12;98650.91;5051571;28;20120;-67
2023/01/16 08:17:51;;;;;;;13.35;2.20;;;;;;;6.92;87.26;98659.88;5049435;28;20087;-67
2023/01/16 08:20:17;;;;;;;17.63;1.90;;;;;;;7.00;86.84;98656.88;5052454;28;20112;-67
2023/01/16 08:22:47;;;;;;;17.75;2.33;;;;;;;7.03;86.92;98661.75;5052259;28;20450;-68
2023/01/16 08:25:14;;;;;;;15.23;1.92;;;;;;;7.07;87.27;98654.09;5052240;28;20055;-68
2023/01/16 08:27:40;;;;;;;15.30;2.22;;;;;;;7.12;87.21;98666.75;5050921;28;20029;-68
2023/01/16 08:30:06;;;;;;;17.33;2.10;;;;;;;7.16;87.26;98667.97;5055255;28;20467;-68
2023/01/16 08:32:32;;;;;;;18.60;1.77;;;;;;;7.22;86.58;98680.44;5056606;28;20029;-68
2023/01/16 08:34:57;;;;;;;20.38;2.50;;;;;;;7.13;86.79;98665.75;5056009;28;20060;-68
2023/01/16 08:37:23;;;;;;;21.75;2.30;;;;;;;7.25;87.03;98685.28;5037307;28;20139;-68
2023/01/16 08:39:48;;;;;;;21.85;2.50;;;;;;;7.29;86.63;98689.16;5052459;28;20073;-67
2023/01/16 08:53:10;;;;;;;23.63;2.88;;;;;;;7.43;86.62;98692.44;5051956;28;20855;-67
2023/01/16 08:55:35;;;;;;;20.50;2.47;;;;;;;7.45;86.49;98696.50;5050721;28;20046;-67
2023/01/16 08:58:01;;;;;;;17.88;2.33;;;;;;;7.47;86.58;98691.72;5051675;28;20033;-67
2023/01/16 09:00:28;;;;;;;25.08;2.90;;;;;;;7.49;87.19;98696.88;5050514;28;20025;-67
2023/01/16 09:02:55;;;;;;;22.40;2.97;;;;;;;7.41;87.23;98708.69;5051826;28;20100;-67
2023/01/16 09:05:21;;;;;;;23.50;2.97;;;;;;;7.47;87.63;98702.44;5052350;28;20025;-67
2023/01/16 09:07:46;;;;;;;17.83;2.45;;;;;;;7.49;87.89;98703.03;5052304;28;20250;-67
2023/01/16 09:10:12;;;;;;;17.15;2.30;;;;;;;7.57;88.02;98696.50;5033972;28;20036;-67
2023/01/16 09:15:23;;;;;;;18.38;2.50;;;;;;;7.62;87.80;98709.22;5052449;28;20083;-67
2023/01/16 09:17:48;;;;;;;17.42;2.28;;;;;;;7.67;87.93;98703.97;5051328;28;20049;-67
2023/01/16 09:20:14;;;;;;;16.70;2.58;;;;;;;7.66;88.17;98705.84;5052790;28;20033;-67
2023/01/16 09:22:40;;;;;;;16.55;2.25;;;;;;;7.59;87.01;98677.56;5052225;28;20032;-67
2023/01/16 09:25:06;;;;;;;18.80;2.58;;;;;;;7.55;89.00;98703.97;5051042;28;20124;-67
2023/01/16 09:27:31;;;;;;;15.23;2.00;;;;;;;7.73;88.42;98713.75;5051785;28;20071;-67
2023/01/16 09:29:57;;;;;;;19.58;2.30;;;;;;;7.81;88.09;98713.41;5034650;28;20041;-68
2023/01/16 09:32:22;;;;;;;12.40;2.15;;;;;;;7.85;88.19;98713.78;5050926;28;20025;-68
2023/01/16 09:34:48;;;;;;;18.08;1.92;;;;;;;7.74;88.25;98699.31;5051170;28;20060;-68
2023/01/16 09:37:13;;;;;;;13.48;1.67;;;;;;;7.71;88.40;98687.22;5050869;28;20037;-68
2023/01/16 09:39:39;;;;;;;15.38;2.10;;;;;;;7.86;88.01;98710.03;5052177;28;20450;-68
2023/01/16 09:44:59;;;;;;;8.65;1.65;;;;;;;7.80;88.35;98711.78;5052531;28;20036;-67
2023/01/16 09:47:26;;;;;;;14.52;1.50;;;;;;;7.83;88.38;98718.53;5052365;28;20056;-67
2023/01/16 09:50:20;;;;;;;13.88;2.03;;;;;;;7.75;88.94;98719.72;5050903;28;20039;-67
2023/01/16 09:58:36;;;;;;;13.10;1.88;;;;;;;7.95;88.94;98716.69;5055457;28;20095;-67
2023/01/16 10:01:08;;;;;;;14.70;2.25;;;;;;;7.96;88.85;98699.56;5053931;28;20028;-68
2023/01/16 10:03:34;;;;;;;17.85;2.15;;;;;;;8.15;88.52;98717.13;5055917;28;20024;-67
2023/01/16 10:06:09;;;;;;;14.23;1.83;;;;;;;8.14;87.99;98698.59;5055423;28;20029;-68
2023/01/16 10:08:44;;;;;;;23.48;2.08;;;;;;;8.10;89.01;98724.25;5055398;28;20039;-68
2023/01/16 10:11:30;;;;;;;17.17;2.15;;;;;;;8.35;87.97;98724.81;5055351;28;20032;-68
2023/01/16 10:14:05;;;;;;;21.20;2.92;;;;;;;8.37;88.12;98714.63;5052200;28;20089;-68
2023/01/16 10:16:33;;;;;;;22.90;3.03;;;;;;;8.54;87.75;98719.31;5056941;28;20316;-68
2023/01/16 10:19:09;;;;;;;19.85;2.70;;;;;;;8.59;87.87;98720.22;5056404;28;20492;-68
2023/01/16 10:21:53;;;;;;;15.48;2.08;;;;;;;8.80;86.62;98716.06;5055355;28;20432;-68
2023/01/16 10:24:40;;;;;;;17.98;2.08;;;;;;;8.73;87.75;98719.97;5054684;28;20036;-68
2023/01/16 10:27:27;;;;;;;16.58;1.85;;;;;;;8.90;86.65;98718.94;5053198;28;20029;-67
2023/01/16 10:30:02;;;;;;;19.63;2.35;;;;;;;8.84;87.49;98714.56;5054861;28;20071;-68
2023/01/16 10:32:38;;;;;;;18.27;2.42;;;;;;;8.85;87.26;98715.38;5054908;28;20431;-67
2023/01/16 10:35:11;;;;;;;13.27;1.98;;;;;;;8.91;87.06;98723.28;5055550;28;20120;-67
2023/01/16 10:37:38;;;;;;;20.33;2.67;;;;;;;8.96;86.77;98719.88;5054380;28;20028;-67
2023/01/16 10:40:16;;;;;;;16.88;3.10;;;;;;;8.91;87.04;98719.78;5054689;28;20071;-67
2023/01/16 10:51:04;;;;;;;21.00;2.70;;;;;;;9.03;85.58;98672.25;5055202;28;20106;-68
2023/01/16 10:53:30;;;;;;;26.95;3.03;;;;;;;9.25;85.36;98693.84;5054428;28;20037;-67
2023/01/16 10:55:56;;;;;;;24.83;3.08;;;;;;;9.25;85.62;98701.06;5053672;28;20029;-67
2023/01/16 10:58:37;;;;;;;22.40;2.85;;;;;;;9.33;85.82;98704.16;5054280;28;20053;-67
2023/01/16 11:01:09;;;;;;;18.77;2.92;;;;;;;9.34;85.43;98705.81;5054331;28;20028;-68
2023/01/16 11:03:42;;;;;;;20.33;2.60;;;;;;;9.25;85.68;98701.06;5053863;28;20063;-67
2023/01/16 11:06:15;;;;;;;25.52;3.72;;;;;;;9.18;85.23;98702.03;5052897;28;20537;-67
2023/01/16 11:08:42;;;;;;;21.63;2.65;;;;;;;9.04;85.42;98705.25;5053726;28;20036;-67
2023/01/16 11:18:27;;;;;;;23.00;2.65;;;;;;;8.88;86.30;98709.53;5053661;28;20104;-67
2023/01/16 11:19:27;;;;;;;18.15;3.00;;;;;;;8.86;85.33;98703.59;5052431;28;20091;-68
2023/01/16 11:22:11;;;;;;;24.33;2.85;;;;;;;8.79;85.96;98697.56;5053827;28;20036;-67
2023/01/16 11:24:39;;;;;;;16.58;2.15;;;;;;;8.76;85.88;98696.16;5053321;28;20067;-67
2023/01/16 11:27:11;;;;;;;22.63;3.85;;;;;;;8.63;86.30;98669.63;5053496;28;20471;-67
2023/01/16 11:29:39;;;;;;;31.60;3.33;;;;;;;8.66;86.10;98690.59;5053556;28;20452;-68
2023/01/16 11:32:09;;;;;;;21.55;3.05;;;;;;;8.69;85.58;98687.44;5053208;28;20025;-68
2023/01/16 11:34:37;;;;;;;19.67;2.55;;;;;;;8.70;85.84;98689.06;5053654;28;20125;-68
2023/01/16 11:37:07;;;;;;;22.10;2.65;;;;;;;8.84;85.30;98695.78;5053334;28;20051;-68
2023/01/16 11:39:35;;;;;;;25.98;2.78;;;;;;;8.79;86.11;98682.28;5052447;28;20024;-68
2023/01/16 11:46:01;;;;;;;17.98;2.85;;;;;;;8.93;85.62;98688.16;5053281;28;20388;-68
2023/01/16 11:47:50;;;;;;;19.55;2.72;;;;;;;8.88;85.45;98680.03;5053131;28;20052;-67
2023/01/16 11:50:32;;;;;;;17.55;2.03;;;;;;;8.79;85.53;98684.16;5051409;28;20062;-67
2023/01/16 11:52:58;;;;;;;15.85;1.83;;;;;;;8.62;84.70;98681.41;5051926;28;20024;-67
2023/01/16 11:56:06;;;;;;;10.27;1.13;;;;;;;8.50;82.99;98681.44;5053712;28;20044;-67
2023/01/16 11:58:34;;;;;;;6.18;1.35;;;;;;;8.54;82.81;98684.44;5046456;28;20573;-68
2023/01/16 12:01:04;;;;;;;7.20;0.80;;;;;;;8.50;81.72;98684.13;5056036;28;20472;-67
2023/01/16 12:03:51;;;;;;;7.13;1.40;;;;;;;8.54;81.66;98679.91;5051204;28;20032;-67
2023/01/16 12:06:16;;;;;;;14.05;1.35;;;;;;;8.67;80.85;98678.81;5052617;28;20032;-67
2023/01/16 12:08:51;;;;;;;14.18;2.42;;;;;;;8.69;80.62;98677.53;5052837;28;20017;-67
2023/01/16 12:11:25;;;;;;;19.00;1.90;;;;;;;8.71;80.92;98661.22;5052893;28;20079;-67
2023/01/16 12:14:17;;;;;;;11.95;1.98;;;;;;;8.81;81.24;98669.44;5052516;28;20033;-67
2023/01/16 12:16:45;;;;;;;19.75;2.13;;;;;;;8.85;81.99;98667.91;5053860;28;20041;-67
2023/01/16 12:19:42;;;;;;;11.27;1.85;;;;;;;8.93;82.47;98666.69;5054249;28;20025;-67
2023/01/16 12:22:31;;;;;;;17.38;2.17;;;;;;;9.09;82.31;98662.44;5052342;28;20380;-67
2023/01/16 12:25:15;;;;;;;18.75;2.30;;;;;;;9.12;82.05;98662.75;5051322;28;20021;-67
2023/01/16 12:27:56;;;;;;;18.77;2.80;;;;;;;9.12;83.06;98649.34;5052924;28;20158;-68
2023/01/16 12:30:40;;;;;;;17.13;2.30;;;;;;;9.16;83.75;98645.09;5052196;28;20048;-68
2023/01/16 12:33:26;;;;;;;20.63;2.70;;;;;;;9.19;83.48;98654.56;5051133;28;20518;-67
2023/01/16 12:36:20;;;;;;;21.40;2.75;;;;;;;9.10;84.23;98647.94;5051314;28;20041;-67
2023/01/16 12:39:09;;;;;;;18.73;2.40;;;;;;;9.08;84.44;98625.94;5052457;28;20025;-68